createdAt,value
2023-09-05T00:00:47.103Z,100900.30
2023-09-05T00:01:51.148Z,100904.62
2023-09-05T00:02:53.847Z,100896.75
2023-09-05T00:03:56.215Z,100900.20
2023-09-05T00:04:58.966Z,100901.16
2023-09-05T00:06:02.505Z,100898.48
2023-09-05T00:07:04.957Z,100900.20
2023-09-05T00:08:07.277Z,100900.20
2023-09-05T00:09:10.110Z,100900.10
2023-09-05T00:10:13.373Z,100898.28
2023-09-05T00:11:15.695Z,100902.99
2023-09-05T00:12:17.805Z,100905.98
2023-09-05T00:13:20.077Z,100900.61
2023-09-05T00:14:22.522Z,100906.84
2023-09-05T00:15:25.337Z,100909.09
2023-09-05T00:16:29.151Z,100911.79
2023-09-05T00:17:31.798Z,100908.14
2023-09-05T00:18:34.084Z,100917.56
2023-09-05T00:19:37.350Z,100911.33
2023-09-05T00:20:40.249Z,100913.25
2023-09-05T00:21:42.912Z,100923.12
2023-09-05T00:22:45.650Z,100917.76
2023-09-05T00:23:48.004Z,100916.89
2023-09-05T00:24:50.288Z,100912.38
2023-09-05T00:25:52.481Z,100914.31
2023-09-05T00:26:55.296Z,100907.25
2023-09-05T00:27:57.678Z,100911.85
2023-09-05T00:29:00.303Z,100913.97
2023-09-05T00:30:03.856Z,100918.28
2023-09-05T00:31:07.123Z,100913.01
2023-09-05T00:32:10.222Z,100924.72
2023-09-05T00:33:13.649Z,100912.25
2023-09-05T00:34:16.403Z,100915.03
2023-09-05T00:35:18.615Z,100918.77
2023-09-05T00:36:21.252Z,100916.22
2023-09-05T00:37:23.418Z,100923.28
2023-09-05T00:38:26.840Z,100915.36
2023-09-05T00:39:31.394Z,100921.79
2023-09-05T00:40:35.003Z,100915.55
2023-09-05T00:41:38.304Z,100922.75
2023-09-05T00:42:40.518Z,100914.03
2023-09-05T00:43:42.797Z,100921.31
2023-09-05T00:44:46.327Z,100920.26
2023-09-05T00:45:51.630Z,100927.64
2023-09-05T00:46:55.714Z,100919.69
2023-09-05T00:47:58.493Z,100921.73
2023-09-05T00:49:01.272Z,100920.02
2023-09-05T00:50:04.023Z,100931.81
2023-09-05T00:51:06.254Z,100924.62
2023-09-05T00:52:11.289Z,100932.67
2023-09-05T00:53:13.987Z,100921.93
2023-09-05T00:54:16.710Z,100927.50
2023-09-05T00:55:20.306Z,100932.09
2023-09-05T00:56:23.214Z,100927.50
2023-09-05T00:57:26.213Z,100929.41
2023-09-05T00:58:28.581Z,100924.05
2023-09-05T00:59:32.321Z,100924.05
2023-09-05T01:00:34.832Z,100922.31
2023-09-05T01:01:37.752Z,100924.23
2023-09-05T01:02:39.969Z,100929.70
2023-09-05T01:03:42.365Z,100928.97
2023-09-05T01:04:45.511Z,100933.47
2023-09-05T01:05:51.499Z,100937.11
2023-09-05T01:07:11.727Z,100924.66
2023-09-05T01:08:34.266Z,100935.39
2023-09-05T01:09:55.683Z,100937.30
2023-09-05T01:11:03.349Z,100936.54
2023-09-05T01:12:06.682Z,100939.98
2023-09-05T01:13:09.319Z,100933.85
2023-09-05T01:14:11.826Z,100932.90
2023-09-05T01:15:15.953Z,100930.21
2023-09-05T01:16:18.405Z,100935.77
2023-09-05T01:17:21.061Z,100938.45
2023-09-05T01:18:23.869Z,100934.81
2023-09-05T01:19:26.581Z,100940.34
2023-09-05T01:22:06.975Z,100935.20
2023-09-05T01:24:22.376Z,100942.48
2023-09-05T01:25:25.233Z,100934.80
2023-09-05T01:26:28.644Z,100939.79
2023-09-05T01:27:31.410Z,100938.93
2023-09-05T01:28:37.659Z,100942.48
2023-09-05T01:29:40.240Z,100942.57
2023-09-05T01:30:43.610Z,100939.79
2023-09-05T01:31:46.775Z,100940.75
2023-09-05T01:32:49.951Z,100941.70
2023-09-05T01:33:53.412Z,100948.80
2023-09-05T01:34:56.232Z,100945.44
2023-09-05T01:35:58.445Z,100939.02
2023-09-05T01:37:00.793Z,100938.25
2023-09-05T01:38:03.825Z,100935.57
2023-09-05T01:39:06.423Z,100941.89
2023-09-05T01:40:10.497Z,100945.53
2023-09-05T01:41:13.157Z,100936.72
2023-09-05T01:42:16.247Z,100941.31
2023-09-05T01:43:19.213Z,100944.00
2023-09-05T01:44:21.605Z,100941.22
2023-09-05T01:45:23.907Z,100943.36
2023-09-05T01:46:26.382Z,100935.95
2023-09-05T01:47:28.699Z,100939.59
2023-09-05T01:48:32.005Z,100933.48
2023-09-05T01:49:34.353Z,100938.85
2023-09-05T01:50:36.867Z,100948.63
2023-09-05T01:51:39.215Z,100946.68
2023-09-05T01:52:41.921Z,100948.41
2023-09-05T01:53:44.203Z,100944.00
2023-09-05T01:54:46.953Z,100944.22
2023-09-05T01:55:49.149Z,100944.95
2023-09-05T01:56:51.623Z,100942.49
2023-09-05T01:57:53.992Z,100940.77
2023-09-05T01:58:56.906Z,100943.54
2023-09-05T01:59:59.594Z,100939.99
2023-09-05T02:01:06.211Z,100947.18
2023-09-05T02:02:08.563Z,100938.55
2023-09-05T02:03:10.861Z,100939.41
2023-09-05T02:04:13.790Z,100943.27
2023-09-05T02:05:16.590Z,100942.28
2023-09-05T02:06:19.727Z,100938.77
2023-09-05T02:07:21.956Z,100942.50
2023-09-05T02:08:24.221Z,100939.59
2023-09-05T02:09:26.564Z,100944.23
2023-09-05T02:10:28.934Z,100939.14
2023-09-05T02:11:31.549Z,100947.09
2023-09-05T02:12:36.048Z,100940.00
2023-09-05T02:13:38.415Z,100938.27
2023-09-05T02:14:40.806Z,100948.05
2023-09-05T02:15:44.205Z,100945.27
2023-09-05T02:16:46.627Z,100942.59
2023-09-05T02:17:49.530Z,100940.19
2023-09-05T02:18:52.809Z,100948.05
2023-09-05T02:19:55.553Z,100941.91
2023-09-05T02:22:08.854Z,100948.41
2023-09-05T02:23:11.254Z,100949.37
2023-09-05T02:24:13.562Z,100938.45
2023-09-05T02:25:15.929Z,100941.91
2023-09-05T02:26:18.665Z,100948.33
2023-09-05T02:27:20.929Z,100945.55
2023-09-05T02:28:23.563Z,100942.28
2023-09-05T02:29:27.985Z,100943.27
2023-09-05T02:30:30.770Z,100952.36
2023-09-05T02:31:33.657Z,100946.05
2023-09-05T02:32:38.250Z,100947.00
2023-09-05T02:33:40.536Z,100942.50
2023-09-05T02:34:43.051Z,100943.73
2023-09-05T02:35:46.966Z,100943.63
2023-09-05T02:36:50.560Z,100944.59
2023-09-05T02:37:53.991Z,100944.59
2023-09-05T02:38:56.680Z,100943.82
2023-09-05T02:39:59.730Z,100945.55
2023-09-05T02:41:02.753Z,100948.41
2023-09-05T02:42:05.262Z,100950.14
2023-09-05T02:43:08.583Z,100958.18
2023-09-05T02:44:11.449Z,100952.05
2023-09-05T02:45:14.663Z,100949.27
2023-09-05T02:46:18.045Z,100962.03
2023-09-05T02:47:21.733Z,100961.25
2023-09-05T02:48:24.640Z,100954.17
2023-09-05T02:49:27.280Z,100959.34
2023-09-05T02:50:29.655Z,100953.98
2023-09-05T02:51:32.459Z,100951.48
2023-09-05T02:52:46.815Z,100963.16
2023-09-05T02:53:40.138Z,100957.20
2023-09-05T02:54:42.576Z,100957.20
2023-09-05T02:55:45.412Z,100964.56
2023-09-05T02:56:48.213Z,100959.30
2023-09-05T02:57:50.932Z,100956.61
2023-09-05T02:58:53.768Z,100960.28
2023-09-05T02:59:56.282Z,100960.28
2023-09-05T03:01:03.862Z,100963.14
2023-09-05T03:02:06.317Z,100964.95
2023-09-05T03:03:09.004Z,100966.95
2023-09-05T03:04:11.716Z,100964.45
2023-09-05T03:05:14.665Z,100963.67
2023-09-05T03:06:17.673Z,100965.61
2023-09-05T03:07:21.659Z,100969.98
2023-09-05T03:08:24.576Z,100965.79
2023-09-05T03:09:27.983Z,100973.66
2023-09-05T03:10:32.850Z,100969.33
2023-09-05T03:11:38.193Z,100962.16
2023-09-05T03:12:40.610Z,100970.38
2023-09-05T03:13:44.759Z,100972.97
2023-09-05T03:14:47.333Z,100971.23
2023-09-05T03:15:51.398Z,100970.38
2023-09-05T03:16:55.127Z,100973.83
2023-09-05T03:17:57.594Z,100977.46
2023-09-05T03:19:00.356Z,100974.00
2023-09-05T03:20:02.792Z,100976.69
2023-09-05T03:21:05.722Z,100970.55
2023-09-05T03:22:08.533Z,100972.28
2023-09-05T03:23:10.833Z,100966.92
2023-09-05T03:24:13.115Z,100979.54
2023-09-05T03:25:15.493Z,100973.41
2023-09-05T03:26:17.836Z,100974.18
2023-09-05T03:27:20.624Z,100976.95
2023-09-05T03:28:23.370Z,100984.21
2023-09-05T03:29:26.195Z,100977.98
2023-09-05T03:30:30.013Z,100979.72
2023-09-05T03:31:32.710Z,100990.64
2023-09-05T03:32:35.130Z,100988.05
2023-09-05T03:33:38.327Z,100983.55
2023-09-05T03:34:41.176Z,100984.41
2023-09-05T03:35:43.753Z,100990.64
2023-09-05T03:36:46.071Z,100983.55
2023-09-05T03:37:48.441Z,100985.28
2023-09-05T03:38:50.679Z,100991.59
2023-09-05T03:39:54.129Z,100985.28
2023-09-05T03:40:56.461Z,100986.37
2023-09-05T03:41:59.084Z,100987.15
2023-09-05T03:43:01.997Z,100988.91
2023-09-05T03:44:04.659Z,100984.56
2023-09-05T03:45:07.905Z,100986.23
2023-09-05T03:46:10.845Z,100982.83
2023-09-05T03:47:14.585Z,100985.59
2023-09-05T03:48:18.713Z,100985.51
2023-09-05T03:49:21.489Z,100978.34
2023-09-05T03:50:24.869Z,100982.74
2023-09-05T03:51:27.329Z,100984.47
2023-09-05T03:52:29.890Z,100984.56
2023-09-05T03:53:33.947Z,100979.92
2023-09-05T03:54:39.120Z,100995.19
2023-09-05T03:55:41.946Z,100990.73
2023-09-05T03:56:44.793Z,100987.15
2023-09-05T03:57:48.225Z,100985.28
2023-09-05T03:58:51.301Z,100989.77
2023-09-05T03:59:53.603Z,100991.59
2023-09-05T04:00:56.397Z,100984.47
2023-09-05T04:01:58.754Z,100987.01
2023-09-05T04:03:02.357Z,100986.14
2023-09-05T04:04:05.305Z,100985.08
2023-09-05T04:05:07.832Z,100983.34
2023-09-05T04:06:10.179Z,100987.01
2023-09-05T04:07:12.407Z,100993.89
2023-09-05T04:08:14.905Z,100993.41
2023-09-05T04:09:17.458Z,100996.86
2023-09-05T04:10:19.880Z,101000.49
2023-09-05T04:11:22.229Z,101003.95
2023-09-05T04:12:24.624Z,100996.95
2023-09-05T04:13:27.865Z,101002.22
2023-09-05T04:14:30.715Z,101003.09
2023-09-05T04:15:33.266Z,101006.72
2023-09-05T04:16:36.283Z,100999.63
2023-09-05T04:17:39.023Z,101003.09
2023-09-05T04:18:41.594Z,101000.29
2023-09-05T04:19:43.912Z,101006.51
2023-09-05T04:20:46.503Z,101002.87
2023-09-05T04:21:48.882Z,101006.34
2023-09-05T04:22:53.083Z,101010.66
2023-09-05T04:23:55.743Z,101008.92
2023-09-05T04:24:58.542Z,101003.57
2023-09-05T04:26:03.510Z,101013.25
2023-09-05T04:27:06.263Z,101011.34
2023-09-05T04:28:09.707Z,101008.67
2023-09-05T04:29:12.563Z,101007.51
2023-09-05T04:30:15.411Z,101001.31
2023-09-05T04:31:17.859Z,101009.23
2023-09-05T04:32:23.460Z,101014.42
2023-09-05T04:33:26.320Z,101008.20
2023-09-05T04:34:31.080Z,101007.84
2023-09-05T04:35:33.354Z,101012.34
2023-09-05T04:36:35.679Z,101005.08
2023-09-05T04:37:38.001Z,101013.89
2023-09-05T04:38:42.463Z,101014.64
2023-09-05T04:39:45.153Z,101012.64
2023-09-05T04:40:47.993Z,101013.51
2023-09-05T04:41:50.449Z,101009.78
2023-09-05T04:42:52.699Z,101014.20
2023-09-05T04:43:54.974Z,101016.09
2023-09-05T04:44:57.212Z,101014.11
2023-09-05T04:45:59.382Z,101013.72
2023-09-05T04:47:23.031Z,101010.17
2023-09-05T04:48:25.630Z,101010.86
2023-09-05T04:49:28.519Z,101011.62
2023-09-05T04:50:30.994Z,101006.18
2023-09-05T04:51:33.790Z,101011.45
2023-09-05T04:52:37.759Z,101005.13
2023-09-05T04:53:42.276Z,101010.31
2023-09-05T04:54:44.624Z,101006.64
2023-09-05T04:55:47.392Z,101009.15
2023-09-05T04:56:49.945Z,101006.28
2023-09-05T04:57:52.393Z,100997.28
2023-09-05T04:58:56.704Z,101005.23
2023-09-05T04:59:59.126Z,101000.56
2023-09-05T05:01:02.255Z,100997.66
2023-09-05T05:02:05.532Z,101000.25
2023-09-05T05:03:07.950Z,100994.80
2023-09-05T05:04:12.511Z,100997.30
2023-09-05T05:05:14.794Z,101000.66
2023-09-05T05:06:17.424Z,100995.20
2023-09-05T05:07:20.895Z,100998.62
2023-09-05T05:08:23.821Z,100998.44
2023-09-05T05:09:26.296Z,100994.80
2023-09-05T05:10:29.018Z,101000.93
2023-09-05T05:11:31.377Z,101003.43
2023-09-05T05:12:33.648Z,100997.97
2023-09-05T05:13:35.728Z,100999.70
2023-09-05T05:14:38.071Z,100996.80
2023-09-05T05:15:40.758Z,100995.83
2023-09-05T05:16:43.018Z,101003.80
2023-09-05T05:17:45.383Z,101001.91
2023-09-05T05:18:47.546Z,100997.41
2023-09-05T05:19:49.662Z,100998.08
2023-09-05T05:20:52.066Z,101001.54
2023-09-05T05:21:54.312Z,101001.45
2023-09-05T05:22:58.605Z,100991.34
2023-09-05T05:24:01.724Z,100998.34
2023-09-05T05:25:04.492Z,100992.02
2023-09-05T05:26:07.371Z,100990.02
2023-09-05T05:27:09.622Z,100995.19
2023-09-05T05:28:12.315Z,100981.67
2023-09-05T05:29:16.556Z,100986.72
2023-09-05T05:30:18.827Z,100985.77
2023-09-05T05:31:21.100Z,100989.13
2023-09-05T05:32:23.373Z,100985.47
2023-09-05T05:33:25.686Z,100988.83
2023-09-05T05:34:33.019Z,100988.61
2023-09-05T05:35:35.730Z,100995.70
2023-09-05T05:36:38.109Z,100993.69
2023-09-05T05:37:40.313Z,100992.73
2023-09-05T05:38:42.981Z,100997.05
2023-09-05T05:39:45.708Z,100999.53
2023-09-05T05:40:48.439Z,101004.81
2023-09-05T05:41:51.001Z,101000.08
2023-09-05T05:42:53.248Z,101005.25
2023-09-05T05:43:56.241Z,101008.70
2023-09-05T05:44:58.659Z,101008.52
2023-09-05T05:46:01.193Z,101007.45
2023-09-05T05:47:03.660Z,101009.05
2023-09-05T05:48:06.284Z,101013.27
2023-09-05T05:49:09.456Z,101008.66
2023-09-05T05:50:12.499Z,101012.02
2023-09-05T05:51:16.133Z,101016.33
2023-09-05T05:52:18.526Z,101014.38
2023-09-05T05:53:21.251Z,101009.76
2023-09-05T05:54:23.894Z,101011.48
2023-09-05T05:55:26.150Z,101017.53
2023-09-05T05:56:29.070Z,101015.60
2023-09-05T05:57:32.456Z,101008.30
2023-09-05T05:58:35.039Z,101010.76
2023-09-05T05:59:37.893Z,101015.11
2023-09-05T06:00:40.645Z,101021.15
2023-09-05T06:01:43.143Z,101015.56
2023-09-05T06:02:45.603Z,101010.95
2023-09-05T06:03:47.976Z,101019.66
2023-09-05T06:04:50.402Z,101022.14
2023-09-05T06:05:53.215Z,101022.91
2023-09-05T06:06:55.587Z,101022.70
2023-09-05T06:07:57.834Z,101017.13
2023-09-05T06:09:01.527Z,101019.47
2023-09-05T06:10:04.553Z,101017.44
2023-09-05T06:11:07.332Z,101019.06
2023-09-05T06:12:09.933Z,101022.41
2023-09-05T06:13:12.614Z,101017.66
2023-09-05T06:14:15.328Z,101018.31
2023-09-05T06:15:17.981Z,101018.22
2023-09-05T06:16:22.590Z,101018.02
2023-09-05T06:17:26.982Z,101014.25
2023-09-05T06:18:29.604Z,101015.73
2023-09-05T06:19:32.206Z,101018.22
2023-09-05T06:20:35.952Z,101023.40
2023-09-05T06:21:38.206Z,101019.64
2023-09-05T06:22:41.798Z,101025.78
2023-09-05T06:23:44.082Z,101023.84
2023-09-05T06:24:47.392Z,101028.12
2023-09-05T06:25:49.662Z,101018.12
2023-09-05T06:26:52.516Z,101025.98
2023-09-05T06:27:54.772Z,101022.33
2023-09-05T06:28:57.540Z,101027.50
2023-09-05T06:30:00.213Z,101013.07
2023-09-05T06:31:03.396Z,101015.52
2023-09-05T06:32:06.039Z,101019.83
2023-09-05T06:33:08.445Z,101021.45
2023-09-05T06:34:11.756Z,101024.91
2023-09-05T06:35:15.027Z,101025.59
2023-09-05T06:36:17.760Z,101021.06
2023-09-05T06:37:19.956Z,101023.52
2023-09-05T06:38:22.288Z,101020.61
2023-09-05T06:39:24.526Z,101020.40
2023-09-05T06:40:27.174Z,101020.19
2023-09-05T06:41:31.895Z,101012.86
2023-09-05T06:42:34.219Z,101023.39
2023-09-05T06:43:37.021Z,101017.78
2023-09-05T06:44:39.283Z,101018.44
2023-09-05T06:45:41.730Z,101012.83
2023-09-05T06:46:44.666Z,101014.45
2023-09-05T06:47:47.068Z,101024.00
2023-09-05T06:48:49.244Z,101009.35
2023-09-05T06:49:51.666Z,101010.00
2023-09-05T06:50:54.181Z,101018.83
2023-09-05T06:51:56.869Z,101005.86
2023-09-05T06:52:59.316Z,101012.64
2023-09-05T06:54:01.591Z,101008.77
2023-09-05T06:55:03.964Z,101004.95
2023-09-05T06:56:07.453Z,101010.02
2023-09-05T06:57:09.612Z,100999.77
2023-09-05T06:58:12.041Z,101002.95
2023-09-05T06:59:14.307Z,101009.84
2023-09-05T07:00:17.191Z,100999.81
2023-09-05T07:01:19.535Z,101009.40
2023-09-05T07:02:22.320Z,100998.39
2023-09-05T07:03:26.284Z,100999.89
2023-09-05T07:04:28.948Z,101010.45
2023-09-05T07:05:31.410Z,101004.84
2023-09-05T07:06:34.064Z,101006.34
2023-09-05T07:07:36.414Z,101008.77
2023-09-05T07:08:38.609Z,101012.97
2023-09-05T07:09:41.313Z,101003.79
2023-09-05T07:10:44.420Z,101005.39
2023-09-05T07:11:47.305Z,101008.58
2023-09-05T07:12:50.480Z,101001.23
2023-09-05T07:13:52.699Z,100999.28
2023-09-05T07:14:54.822Z,100999.92
2023-09-05T07:15:57.120Z,100995.16
2023-09-05T07:17:02.770Z,100994.78
2023-09-05T07:18:05.421Z,101008.90
2023-09-05T07:19:08.103Z,100998.62
2023-09-05T07:20:11.381Z,100998.23
2023-09-05T07:21:13.826Z,100998.75
2023-09-05T07:22:16.533Z,100997.66
2023-09-05T07:23:19.077Z,100997.31
2023-09-05T07:24:22.387Z,100997.05
2023-09-05T07:25:24.636Z,101003.07
2023-09-05T07:26:27.010Z,100992.90
2023-09-05T07:27:29.446Z,100994.39
2023-09-05T07:28:31.746Z,100995.02
2023-09-05T07:29:36.280Z,100991.09
2023-09-05T07:30:39.061Z,100994.42
2023-09-05T07:31:42.587Z,100995.75
2023-09-05T07:33:48.379Z,101009.52
2023-09-05T07:34:50.709Z,101000.20
2023-09-05T07:35:53.051Z,101004.35
2023-09-05T07:36:55.297Z,101004.86
2023-09-05T07:37:57.660Z,101001.91
2023-09-05T07:39:01.011Z,101006.06
2023-09-05T07:40:06.285Z,101002.14
2023-09-05T07:41:08.397Z,101000.91
2023-09-05T07:42:11.213Z,100997.97
2023-09-05T07:43:13.767Z,101003.09
2023-09-05T07:44:15.917Z,101000.03
2023-09-05T07:45:18.244Z,100998.93
2023-09-05T07:46:20.843Z,101001.27
2023-09-05T07:47:23.534Z,100995.58
2023-09-05T07:48:26.035Z,100989.06
2023-09-05T07:49:29.187Z,100994.23
2023-09-05T07:50:36.773Z,100991.28
2023-09-05T07:51:39.518Z,100996.32
2023-09-05T07:52:41.725Z,100998.66
2023-09-05T07:53:49.593Z,100999.14
2023-09-05T07:54:51.934Z,100999.59
2023-09-05T07:55:54.284Z,100994.67
2023-09-05T07:56:57.514Z,101002.30
2023-09-05T07:57:59.846Z,100992.91
2023-09-05T07:59:02.465Z,100994.38
2023-09-05T08:00:06.201Z,100991.42
2023-09-05T08:01:10.849Z,100994.86
2023-09-05T08:02:13.420Z,100996.45
2023-09-05T08:03:16.206Z,100999.86
2023-09-05T08:04:18.896Z,101006.86
2023-09-05T08:05:21.365Z,101002.19
2023-09-05T08:06:23.906Z,101003.91
2023-09-05T08:07:26.325Z,100999.36
2023-09-05T08:08:29.246Z,101002.80
2023-09-05T08:09:31.734Z,100996.27
2023-09-05T08:10:34.052Z,100994.14
2023-09-05T08:11:36.258Z,101000.16
2023-09-05T08:12:38.921Z,100997.19
2023-09-05T08:13:42.361Z,101003.34
2023-09-05T08:14:44.737Z,100989.55
2023-09-05T08:15:47.534Z,100985.86
2023-09-05T08:16:50.345Z,100992.70
2023-09-05T08:17:52.596Z,100997.00
2023-09-05T08:18:54.850Z,101001.33
2023-09-05T08:19:58.038Z,101000.21
2023-09-05T08:21:00.534Z,100991.95
2023-09-05T08:22:03.207Z,100995.40
2023-09-05T08:23:06.177Z,100988.83
2023-09-05T08:24:08.492Z,100995.84
2023-09-05T08:25:10.753Z,101002.84
2023-09-05T08:26:13.595Z,101000.86
2023-09-05T08:27:15.859Z,100994.33
2023-09-05T08:28:18.772Z,100993.21
2023-09-05T08:29:21.448Z,101002.03
2023-09-05T08:30:23.878Z,100989.22
2023-09-05T08:31:26.509Z,101004.35
2023-09-05T08:32:28.935Z,100986.13
2023-09-05T08:33:31.248Z,100994.12
2023-09-05T08:34:33.629Z,100998.41
2023-09-05T08:35:37.078Z,100994.55
2023-09-05T08:36:39.399Z,100992.44
2023-09-05T08:37:41.611Z,100993.03
2023-09-05T08:38:44.261Z,100995.34
2023-09-05T08:39:46.612Z,100995.91
2023-09-05T08:40:49.285Z,100991.95
2023-09-05T08:41:51.634Z,100988.84
2023-09-05T08:42:53.933Z,100994.00
2023-09-05T08:43:57.949Z,100992.84
2023-09-05T08:45:03.358Z,100993.43
2023-09-05T08:46:06.943Z,100995.15
2023-09-05T08:47:09.777Z,100998.59
2023-09-05T08:48:12.340Z,101002.87
2023-09-05T08:49:15.081Z,101000.80
2023-09-05T08:50:18.309Z,100998.64
2023-09-05T08:51:21.913Z,100994.08
2023-09-05T08:52:28.283Z,100992.95
2023-09-05T08:53:39.041Z,100998.11
2023-09-05T08:54:41.297Z,100994.27
2023-09-05T08:55:44.090Z,100997.54
2023-09-05T08:56:47.447Z,100995.55
2023-09-05T08:57:50.918Z,101002.55
2023-09-05T08:58:53.842Z,100997.86
2023-09-05T08:59:56.449Z,100997.86
2023-09-05T09:00:58.902Z,100996.86
2023-09-05T09:02:02.600Z,100999.58
2023-09-05T09:04:15.437Z,100994.03
2023-09-05T09:05:18.172Z,101003.01
2023-09-05T09:06:25.568Z,101004.45
2023-09-05T09:07:28.733Z,101000.58
2023-09-05T09:08:40.592Z,100997.59
2023-09-05T09:09:42.813Z,100999.91
2023-09-05T09:12:15.425Z,100991.64
2023-09-05T09:13:21.558Z,100998.50
2023-09-05T09:14:24.225Z,100994.94
2023-09-05T09:15:27.473Z,100993.35
2023-09-05T09:16:31.017Z,100996.78
2023-09-05T09:17:33.399Z,100996.34
2023-09-05T09:18:35.704Z,100996.06
2023-09-05T09:19:42.062Z,100993.35
2023-09-05T09:20:46.416Z,100995.93
2023-09-05T09:21:48.770Z,100989.64
2023-09-05T09:22:51.863Z,100993.48
2023-09-05T09:25:12.454Z,100983.63
2023-09-05T09:26:15.731Z,100993.90
2023-09-05T09:27:18.042Z,100990.19
2023-09-05T09:29:34.310Z,100981.50
2023-09-05T09:30:36.810Z,100982.23
2023-09-05T09:31:39.297Z,100978.20
2023-09-05T09:32:41.696Z,100974.22
2023-09-05T09:33:44.655Z,100974.94
2023-09-05T09:34:47.011Z,100977.38
2023-09-05T09:36:07.880Z,100972.53
2023-09-05T09:37:10.760Z,100966.25
2023-09-05T09:38:13.024Z,100973.42
2023-09-05T09:39:15.301Z,100972.25
2023-09-05T09:40:18.310Z,100962.25
2023-09-05T09:41:21.906Z,100972.97
2023-09-05T09:42:24.636Z,100963.70
2023-09-05T09:44:37.991Z,100969.83
2023-09-05T09:45:40.566Z,100974.27
2023-09-05T09:46:43.343Z,100975.13
2023-09-05T09:47:50.480Z,100972.41
2023-09-05T09:48:55.456Z,100965.13
2023-09-05T09:49:59.372Z,100961.56
2023-09-05T09:52:17.085Z,100973.98
2023-09-05T09:53:22.965Z,100975.70
2023-09-05T09:54:30.577Z,100979.11
2023-09-05T09:55:34.086Z,100975.11
2023-09-05T09:56:39.354Z,100973.13
2023-09-05T09:57:52.326Z,100970.13
2023-09-05T09:58:56.410Z,100974.27
2023-09-05T10:00:02.812Z,100982.10
2023-09-05T10:01:10.183Z,100968.25
2023-09-05T10:02:16.218Z,100965.11
2023-09-05T10:03:19.801Z,100961.08
2023-09-05T10:04:24.529Z,100959.93
2023-09-05T10:05:28.306Z,100960.50
2023-09-05T10:06:30.880Z,100961.94
2023-09-05T10:07:34.115Z,100960.47
2023-09-05T10:08:42.006Z,100951.03
2023-09-05T10:09:43.615Z,100959.89
2023-09-05T10:10:47.693Z,100959.61
2023-09-05T10:11:50.869Z,100958.32
2023-09-05T10:12:54.251Z,100951.03
2023-09-05T10:13:58.419Z,100957.03
2023-09-05T10:15:04.328Z,100948.59
2023-09-05T10:16:09.419Z,100945.59
2023-09-05T10:17:12.447Z,100944.29
2023-09-05T10:18:17.495Z,100949.41
2023-09-05T10:19:21.472Z,100940.95
2023-09-05T10:20:28.170Z,100942.67
2023-09-05T10:21:31.329Z,100947.39
2023-09-05T10:22:38.502Z,100951.83
2023-09-05T10:23:42.549Z,100953.55
2023-09-05T10:24:46.344Z,100951.83
2023-09-05T10:25:49.966Z,100949.82
2023-09-05T10:26:52.769Z,100947.11
2023-09-05T10:27:55.054Z,100947.11
2023-09-05T10:28:57.505Z,100940.66
2023-09-05T10:30:00.394Z,100942.37
2023-09-05T10:31:08.399Z,100941.09
2023-09-05T10:32:20.535Z,100936.33
2023-09-05T10:34:54.640Z,100933.67
2023-09-05T10:35:56.984Z,100939.17
2023-09-05T10:36:59.723Z,100927.84
2023-09-05T10:38:04.853Z,100929.38
2023-09-05T10:39:24.553Z,100933.38
2023-09-05T10:41:40.894Z,100925.41
2023-09-05T10:44:08.064Z,100914.38
2023-09-05T10:45:20.059Z,100924.14
2023-09-05T10:46:23.470Z,100934.72
2023-09-05T10:47:30.395Z,100926.41
2023-09-05T10:48:36.101Z,100922.69
2023-09-05T10:51:12.237Z,100918.62
2023-09-05T10:52:21.574Z,100922.42
2023-09-05T10:53:24.334Z,100921.23
2023-09-05T10:54:28.870Z,100926.86
2023-09-05T10:55:36.255Z,100929.25
2023-09-05T10:56:43.224Z,100920.93
2023-09-05T10:57:47.225Z,100926.23
2023-09-05T10:58:53.212Z,100924.06
2023-09-05T10:59:55.520Z,100922.05
2023-09-05T11:00:58.191Z,100917.12
2023-09-05T11:02:00.970Z,100921.75
2023-09-05T11:03:14.449Z,100924.28
2023-09-05T11:04:23.392Z,100923.12
2023-09-05T11:05:25.930Z,100918.69
2023-09-05T11:06:28.240Z,100919.70
2023-09-05T11:07:32.010Z,100928.87
2023-09-05T11:08:34.261Z,100921.75
2023-09-05T11:09:40.960Z,100923.12
2023-09-05T11:10:43.126Z,100921.26
2023-09-05T11:11:45.400Z,100919.39
2023-09-05T11:12:48.749Z,100913.95
2023-09-05T11:13:51.700Z,100921.11
2023-09-05T11:14:55.212Z,100917.69
2023-09-05T11:16:00.853Z,100913.25
2023-09-05T11:17:04.156Z,100904.78
2023-09-05T11:18:07.828Z,100917.08
2023-09-05T11:19:10.329Z,100907.75
2023-09-05T11:20:13.282Z,100914.72
2023-09-05T11:21:23.585Z,100914.58
2023-09-05T11:22:25.888Z,100915.43
2023-09-05T11:23:28.531Z,100910.99
2023-09-05T11:24:32.911Z,100903.84
2023-09-05T11:25:41.698Z,100912.70
2023-09-05T11:26:44.542Z,100906.41
2023-09-05T11:27:49.382Z,100903.84
2023-09-05T11:28:52.450Z,100900.27
2023-09-05T11:29:55.721Z,100900.45
2023-09-05T11:30:58.351Z,100900.11
2023-09-05T11:32:01.034Z,100900.11
2023-09-05T11:33:09.061Z,100904.55
2023-09-05T11:34:15.442Z,100901.82
2023-09-05T11:35:20.207Z,100894.05
2023-09-05T11:36:22.103Z,100908.67
2023-09-05T11:37:25.126Z,100902.22
2023-09-05T11:38:28.060Z,100902.38
2023-09-05T11:39:31.628Z,100905.25
2023-09-05T11:40:34.110Z,100896.08
2023-09-05T11:41:39.398Z,100894.36
2023-09-05T11:42:41.902Z,100895.22
2023-09-05T11:43:52.659Z,100891.64
2023-09-05T11:44:55.529Z,100891.48
2023-09-05T11:45:58.063Z,100887.60
2023-09-05T11:47:01.723Z,100886.29
2023-09-05T11:48:09.977Z,100892.25
2023-09-05T11:49:12.521Z,100886.66
2023-09-05T11:50:16.759Z,100887.66
2023-09-05T11:51:19.338Z,100880.20
2023-09-05T11:52:24.006Z,100872.88
2023-09-05T11:53:28.385Z,100880.20
2023-09-05T11:54:33.888Z,100888.00
2023-09-05T11:55:36.971Z,100888.86
2023-09-05T11:56:39.400Z,100878.98
2023-09-05T11:57:41.936Z,100887.45
2023-09-05T11:58:45.769Z,100878.42
2023-09-05T11:59:49.568Z,100879.44
2023-09-05T12:00:52.123Z,100869.56
2023-09-05T12:01:55.284Z,100877.73
2023-09-05T12:02:59.259Z,100867.84
2023-09-05T12:04:02.982Z,100868.55
2023-09-05T12:05:11.164Z,100874.00
2023-09-05T12:06:14.663Z,100873.69
2023-09-05T12:07:16.966Z,100870.63
2023-09-05T12:08:33.760Z,100874.75
2023-09-05T12:09:24.708Z,100868.30
2023-09-05T12:10:28.890Z,100865.58
2023-09-05T12:11:31.315Z,100862.85
2023-09-05T12:12:33.526Z,100869.31
2023-09-05T12:13:42.242Z,100861.84
2023-09-05T12:14:57.046Z,100863.55
2023-09-05T12:15:59.988Z,100868.14
2023-09-05T12:17:02.654Z,100865.27
2023-09-05T12:18:07.053Z,100861.84
2023-09-05T12:19:10.853Z,100862.16
2023-09-05T12:20:13.309Z,100867.44
2023-09-05T12:21:16.062Z,100858.42
2023-09-05T12:22:31.647Z,100860.83